KERO2: Robert S. Kerr Lock & Dam & Reservoir (L&D 15)

Data processed at Fri Mar 09 2018 23:10


All information presented herein is the property of the government of the United States of America and may be revised or deleted at any time without prior notice.
Dissemination of this information without the expressed written consent of the Public Affairs Office, Tulsa District U.S. Army Corps of Engineers is strictly prohibited.
These data are gathered electronically and, as presented, have not undergone any form of quality control. These data are not guaranteed to be valid or correct.
Go to home page.
Go to station list.

Upstream stations:

Downstream station:
Previous Day
Next Day
Current Day
    
SHEF ID:       KERO2     Robert S. Kerr Lock & Dam
STATION TYPE:  NAVIGATION LOCK
Normal Pool:  Bottom =   458.00, Top =   460.00

               PRECIP ELEVATION   STORAGE   TW-ELEV    INFLOW   RELEASE  AIR-TEMP  WIND-DIRWIND-SPEED REL-HUMID SOLAR-RAD   VOLTAGE  BAT-LOAD
                   in        ft     ac-ft        ft       cfs       cfs         F       deg       mph         %      W/m2      volt      volt
              Ccp-Rev   Ccp-Rev   Ccp-Rev   Ccp-Rev  Regi-Rev  Regi-Rev   Ccp-Rev   Ccp-Rev   Ccp-Rev   Ccp-Rev   Ccp-Rev   Ccp-Rev   Ccp-Rev
(US/Central)
03/07 00:00      0.00    459.56    506726    415.23     36592     42850     38.16    298.30      9.98     49.22      0.00     13.82     13.36
03/07 01:00      0.00    459.52    505002    415.23     38678     42850     36.63    299.30      8.90     53.74      0.00     13.80     13.48
03/07 02:00      0.00    459.51    504571    415.24     41807     42850     36.07    272.30      6.42     56.86      0.00     13.80     13.36
03/07 03:00      0.00    459.54    505864    415.18     37635     42850     35.19    266.10      7.45     60.58      0.00     13.79     13.36
03/07 04:00      0.00    459.54    505864    415.25     41807     42850     34.00    279.80      7.44     63.65      0.00     13.80     13.36
03/07 05:00      0.00    459.51    504571    415.32     43893     42850     33.44    276.00      6.90     66.27      0.00     13.81     13.42
03/07 06:00      0.00    459.51    504571    415.29     42850     42850     32.45    286.70      6.23     69.51      0.00     13.80     13.48
03/07 07:00      0.00    459.52    505002    415.27     42850     42850     32.56    273.80      6.57     70.73      3.00     13.79     13.36
03/07 08:00      0.00    459.54    505864    415.26     47022     42850     34.88    273.80      7.76     64.81    140.00     13.80     13.36
03/07 09:00      0.00    459.54    505864    415.24     49108     42850     36.73    282.20      8.58     60.34    209.00     13.80     13.36
03/07 10:00      0.00    459.55    506295    415.24     50151     42850     37.96    289.30      9.92     56.87    481.00     13.82     13.30
03/07 11:00      0.00    459.57    507157    415.25     43893     42850     39.81    261.20      9.85     58.70    785.00     13.82     13.42
03/07 12:00      0.00    459.59    508019    415.22     48065     42850     41.36    236.60     13.92     53.44    860.00     13.80     13.48
03/07 13:00      0.00    459.55    506295    415.25     45979     42850     42.78    228.60     14.20     51.25    925.00     13.80     13.36
03/07 14:00      0.00    459.59    508019    415.24     44936     42850     45.75    240.40     14.87     44.46    876.00     13.80     13.36
03/07 15:00      0.00    459.58    507588    415.21     45979     42850     46.96    249.80     14.57     41.04    784.00     13.82     13.36
03/07 16:00      0.00    459.59    508019    415.24     53280     42850     48.27    250.50     12.30     37.38    619.00     13.81     13.42
03/07 17:00      0.00    459.62    509312    415.21     71237     42850     48.94    260.10     10.52     38.23    402.00     13.83     13.36
03/07 18:00      0.00    459.65    510605    415.25     63710     42850     48.60    261.50      9.42     35.42    166.00     13.83     13.48
03/07 19:00      0.00    459.71    513191    415.24     68926     42850     46.96    263.90      5.80     46.35      6.00     13.80     13.48
03/07 20:00      0.00    459.78    516208    415.26     73098     42850     46.18    268.50      3.46     54.29      0.00     13.80     13.36
03/07 21:00      0.00    459.84    518794    415.22     75184     42850     44.55    257.40      2.73     68.78      0.00     13.80     13.36
03/07 22:00      0.00    459.91    521811    415.23     54161     42850     45.21    224.90      2.52     60.10      0.00     13.82     13.30
03/07 23:00      0.00    459.96    523966    415.99     69407     42850     43.88    204.40      2.60     58.75      0.00     13.82     13.48